Airfield Spitzerberg WebCam, Wind- und Wetterwerte

LOAS PhotoWebcam

Blick vom Tower Richtung Süden nach Prellenkirchen

Das Bild wird alle 5 Minuten direkt von der Smartphone-Kamera ins Internet gesendet.
Verwendet wird die Android-App MobileWebcam, die das jpg-Bild via FTP zum Webserver hochlädt.
Weitere Übertragungsmöglichkeiten sind HTTP, Email und Dropbox ®.
PhotoWebCam sponsoring wedding&beauty

Die Wetterstation wurde  errichtet und erstellt von : Werner Kroneis, Martin Mokrusch in Zusammenarbeit mit dem Flugsportzentrum Spitzerberg
Verwendung auf unserer Seite mit freundlicher Genehmigung von Werner Kroneis, windy.tv, meteoblue.com.

  AustroControl Wettterradar

 

empfohlene Webcams:

a1-arsenal.panomax.com

Kamera am A1-Turm im Arsenal, bei klarem Wetter, Sicht bis zum Spitzerberg

www.foto-webcam.eu

Wetterkameras mit höchster Auflösung in Europa

www.panomax.com

interaktive 360° Panoramen

www.bergfex.at

Bergfex

webcams.kelag.at

KELAG Webcams in Kärnten & Osttirol

 

METAR ist die Abkürzung für franz. Message d’observation météorologique régulière pour l’aviation bzw. MÉTéorologique Aviation Régulière. Im Englischen sind die Formulierungen METeorological Aerodrome Report, Aviation Routine Weather Report oder auch Meteorological Aviation Routine Weather Report gebräuchlich.

TAF Terminal Aerodrome Forecast ist eine, durch ICAO-Richtlinien, international normierte Flugwetterprognose für ein(en) bestimmten(s) Flugfeld, -platz oder -hafen. Er gibt Auskunft über das so genannte "aktuelle Wetter" und die Wetterentwicklung im Gültigkeitszeitraum. Die angegebenen bzw. vorausgesagten Parameter sind auf die Bedürfnisse von landenden oder startenden Luftfahrzeugen ausgerichtet. Zum Teil werden aktuelle Wetterbeobachtungen in kürzest möglicher Form im sogenannten GAFOR-Code ausgegeben.

 


Aviation WX Wien-Schwechat

[Source: ADDS]
METAR
LOWW 160920Z 13016KT 6000 OVC005 M01/M02 Q1004 R88/19//95 TEMPO BKN006 =
TAF
AMD LOWW 160931Z 1609/1712 15010KT 7000 BKN008 TX06/1712Z TNM01/1609Z TEMPO 1609/1611 13016KT 4000 BR OVC004 PROB40 TEMPO 1609/1612 -FZRA BECMG 1612/1615 9999 FEW012 BKN060 BECMG 1616/1618 27012KT TEMPO 1618/1703 28015G25KT -SHRA PROB40 TEMPO 1710/1712 30018G30KT SHRA FEW045TCU BKN050 =
SR / SS: 06:38 / 15:30 UTC (LOWW, 2018-01-16)

Aviation WX Bratislava

[Source: ADDS]
METAR
LZIB 160930Z 10011KT 6000 -SN OVC009 M02/M03 Q1007 R88/410195 BECMG OVC011 =
TAF
LZIB 160500Z 1606/1706 12012KT 6000 -SN BKN009 OVC020 PROB30 TEMPO 1606/1608 -FZRA TEMPO 1606/1612 13018G28KT TEMPO 1611/1615 2000 SN OVC004 BECMG 1618/1620 26010KT 9999 NSW FEW020 SCT060 TEMPO 1618/1702 28015G25KT =
SR / SS: 06:35 / 15:26 UTC (LZIB, 2018-01-16)

Terminkalender

January 2018
M T W T F S S
1 2 3 4 5 6 7
8 9 10 11 12 13 14
15 16 17 18 19 20 21
22 23 24 25 26 27 28
29 30 31 1 2 3 4

nächsten Termine

09 Feb 2018
18:00 -
Clubabend

Wer ist online

Aktuell sind 9 Gäste und keine Mitglieder online